Terminal Aerodrome Forecast
Issued by NWS Melbourne, FL

Home | Current Version | Previous Version | Text Only | Print | Product List | Glossary On
Versions: 1 2 3 4 5 6 7 8 9 10 11 12 13 14
003
FTUS42 KMLB 232340
TAFVRB
TAF
KVRB 232340Z 2400/2424 13012KT P6SM FEW250
     FM240600 15005KT P6SM FEW025 SCT250
     FM241700 12011G17KT P6SM SCT040 SCT250=

USA.gov is the U.S. government's official web portal to all federal, state and local government web resources and services.